Time;durP1;ratioP1;P1;durP2;ratioP2;P2;SDS_P1;SDS_P2;PMS_P1;PMS_P2;Temp;Humidity;BMP_temperature;BMP_pressure;BME280_temperature;BME280_humidity;BME280_pressure;Samples;Min_cycle;Max_cycle;Signal;HPM_P1;HPM_P2
2022/11/11 00:01:58;;;;;;;;;;;;;;;;;;6259840;22;19994;-91
2022/11/11 00:04:24;;;;;;;;;;;;;;;;;;6258300;22;19926;-90
2022/11/11 00:06:52;;;;;;;;;;;;;;;;;;6236344;22;20290;-91
2022/11/11 00:09:18;;;;;;;;;;;;;;;;;;6233706;22;20301;-92
2022/11/11 00:11:44;;;;;;;;;;;;;;;;;;6263881;22;19922;-90
2022/11/11 00:14:10;;;;;;;;;;;;;;;;;;6260603;22;20403;-91
2022/11/11 00:25:05;;;;;;;;;;;;;;;;;;6264249;22;19923;-90
2022/11/11 00:27:31;;;;;;;;;;;;;;;;;;6287339;22;20016;-89
2022/11/11 00:29:57;;;;;;;;;;;;;;;;;;6235888;22;19914;-90
2022/11/11 00:32:26;;;;;;;;;;;;;;;;;;6286997;22;19990;-91
2022/11/11 00:37:37;;;;;;;;;;;;;;;;;;6258697;22;19922;-89
2022/11/11 00:40:03;;;;;;;;;;;;;;;;;;6259216;22;19976;-89
2022/11/11 00:42:29;;;;;;;;;;;;;;;;;;6259764;22;19986;-90
2022/11/11 00:44:55;;;;;;;;;;;;;;;;;;6235431;22;19923;-90
2022/11/11 00:52:50;;;;;;;;;;;;;;;;;;6255578;22;20005;-91
2022/11/11 00:55:16;;;;;;;;;;;;;;;;;;6253416;22;19923;-90
2022/11/11 00:57:42;;;;;;;;;;;;;;;;;;6233070;22;19915;-90
2022/11/11 01:00:08;;;;;;;;;;;;;;;;;;6229372;22;19989;-90
2022/11/11 01:02:34;;;;;;;;;;;;;;;;;;6251121;22;20100;-90
2022/11/11 01:05:00;;;;;;;;;;;;;;;;;;6256158;22;20393;-90
2022/11/11 01:07:26;;;;;;;;;;;;;;;;;;6230475;22;19930;-90
2022/11/11 01:09:52;;;;;;;;;;;;;;;;;;6257256;22;20347;-90
2022/11/11 01:12:17;;;;;;;;;;;;;;;;;;6255454;22;19919;-90
2022/11/11 01:14:43;;;;;;;;;;;;;;;;;;6236574;22;19926;-90
2022/11/11 01:17:09;;;;;;;;;;;;;;;;;;6263204;22;19919;-90
2022/11/11 01:19:35;;;;;;;;;;;;;;;;;;6229044;22;20233;-90
2022/11/11 01:22:01;;;;;;;;;;;;;;;;;;6260300;22;19923;-90
2022/11/11 01:24:27;;;;;;;;;;;;;;;;;;6233706;22;19919;-90
2022/11/11 01:26:53;;;;;;;;;;;;;;;;;;6233424;22;20034;-90
2022/11/11 01:29:19;;;;;;;;;;;;;;;;;;6231238;22;19923;-90
2022/11/11 01:31:45;;;;;;;;;;;;;;;;;;6231362;22;19941;-91
2022/11/11 01:34:11;;;;;;;;;;;;;;;;;;6234706;22;19919;-89
2022/11/11 01:36:37;;;;;;;;;;;;;;;;;;6255686;22;20370;-90
2022/11/11 01:39:03;;;;;;;;;;;;;;;;;;6231251;22;19965;-90
2022/11/11 01:41:32;;;;;;;;;;;;;;;;;;6225290;22;19926;-89
2022/11/11 01:43:58;;;;;;;;;;;;;;;;;;6232102;22;20391;-90
2022/11/11 01:46:24;;;;;;;;;;;;;;;;;;6229005;22;19989;-90
2022/11/11 01:51:35;;;;;;;;;;;;;;;;;;6255965;22;19923;-91
2022/11/11 01:54:01;;;;;;;;;;;;;;;;;;6257896;22;20217;-91
2022/11/11 01:56:27;;;;;;;;;;;;;;;;;;6228069;22;19927;-90
2022/11/11 01:58:53;;;;;;;;;;;;;;;;;;6229244;22;20328;-90
2022/11/11 02:01:19;;;;;;;;;;;;;;;;;;6231977;22;19919;-91
2022/11/11 02:05:40;;;;;;;;;;;;;;;;;;6230455;22;19959;-90
2022/11/11 02:06:31;;;;;;;;;;;;;;;;;;6257473;22;19919;-90
2022/11/11 02:08:56;;;;;;;;;;;;;;;;;;6256711;22;19930;-90
2022/11/11 02:16:52;;;;;;;;;;;;;;;;;;6260417;22;19969;-90
2022/11/11 02:19:18;;;;;;;;;;;;;;;;;;6232396;22;19919;-90
2022/11/11 02:21:44;;;;;;;;;;;;;;;;;;6259147;22;20404;-90
2022/11/11 02:24:10;;;;;;;;;;;;;;;;;;6234567;22;19976;-90
2022/11/11 02:26:36;;;;;;;;;;;;;;;;;;6231171;22;20264;-90
2022/11/11 02:29:02;;;;;;;;;;;;;;;;;;6234430;22;19923;-90
2022/11/11 02:31:28;;;;;;;;;;;;;;;;;;6231500;22;19920;-90
2022/11/11 02:33:54;;;;;;;;;;;;;;;;;;6233609;22;20241;-90
2022/11/11 02:36:20;;;;;;;;;;;;;;;;;;6232973;22;19919;-90
2022/11/11 02:38:45;;;;;;;;;;;;;;;;;;6233475;22;19982;-89
2022/11/11 02:43:56;;;;;;;;;;;;;;;;;;6260081;22;19988;-90
2022/11/11 02:46:22;;;;;;;;;;;;;;;;;;6231680;22;19919;-90
2022/11/11 02:48:48;;;;;;;;;;;;;;;;;;6246378;22;20275;-89
2022/11/11 02:51:14;;;;;;;;;;;;;;;;;;6240551;22;20328;-89
2022/11/11 02:53:40;;;;;;;;;;;;;;;;;;6232805;22;19919;-90
2022/11/11 02:56:06;;;;;;;;;;;;;;;;;;6234911;22;19931;-90
2022/11/11 02:58:32;;;;;;;;;;;;;;;;;;6256534;22;19930;-91
2022/11/11 03:00:58;;;;;;;;;;;;;;;;;;6234545;22;19991;-89
2022/11/11 03:03:24;;;;;;;;;;;;;;;;;;6231370;22;19986;-90
2022/11/11 03:05:50;;;;;;;;;;;;;;;;;;6260692;22;19922;-90
2022/11/11 03:08:16;;;;;;;;;;;;;;;;;;6231635;22;20239;-90
2022/11/11 03:10:42;;;;;;;;;;;;;;;;;;6233997;22;20368;-90
2022/11/11 03:13:08;;;;;;;;;;;;;;;;;;6232710;22;19994;-90
2022/11/11 03:15:34;;;;;;;;;;;;;;;;;;6231612;22;20726;-90
2022/11/11 03:18:00;;;;;;;;;;;;;;;;;;6231955;22;20287;-90
2022/11/11 03:23:10;;;;;;;;;;;;;;;;;;6260736;22;20352;-90
2022/11/11 03:25:36;;;;;;;;;;;;;;;;;;6232433;22;20005;-89
2022/11/11 03:28:02;;;;;;;;;;;;;;;;;;6236786;22;19916;-90
2022/11/11 03:30:28;;;;;;;;;;;;;;;;;;6255701;22;20411;-90
2022/11/11 03:32:54;;;;;;;;;;;;;;;;;;6260203;22;19926;-90
2022/11/11 03:35:20;;;;;;;;;;;;;;;;;;6259397;22;19957;-90
2022/11/11 03:40:31;;;;;;;;;;;;;;;;;;6254916;22;19920;-89
2022/11/11 03:42:57;;;;;;;;;;;;;;;;;;6232859;22;19915;-90
2022/11/11 03:45:23;;;;;;;;;;;;;;;;;;6255635;22;19919;-90
2022/11/11 03:47:49;;;;;;;;;;;;;;;;;;6232064;22;19985;-90
2022/11/11 03:50:15;;;;;;;;;;;;;;;;;;6252449;22;19990;-90
2022/11/11 03:52:42;;;;;;;;;;;;;;;;;;6235334;22;20249;-91
2022/11/11 03:55:08;;;;;;;;;;;;;;;;;;6257562;22;19985;-90
2022/11/11 03:57:34;;;;;;;;;;;;;;;;;;6257541;22;20794;-90
2022/11/11 04:00:00;;;;;;;;;;;;;;;;;;6230605;22;19923;-91
2022/11/11 04:10:40;;;;;;;;;;;;;;;;;;6261689;22;19969;-91
2022/11/11 04:16:06;;;;;;;;;;;;;;;;;;6256873;22;20251;-90
2022/11/11 04:24:02;;;;;;;;;;;;;;;;;;6261031;22;20240;-90
2022/11/11 04:26:27;;;;;;;;;;;;;;;;;;6256030;22;19919;-91
2022/11/11 04:32:34;;;;;;;;;;;;;;;;;;6253539;22;19926;-91
2022/11/11 04:34:24;;;;;;;;;;;;;;;;;;6253836;22;20336;-90
2022/11/11 04:36:50;;;;;;;;;;;;;;;;;;6258889;22;19919;-90
2022/11/11 04:42:01;;;;;;;;;;;;;;;;;;6259307;22;19986;-90
2022/11/11 04:47:11;;;;;;;;;;;;;;;;;;6258104;22;19942;-89
2022/11/11 04:49:37;;;;;;;;;;;;;;;;;;6230861;22;19919;-90
2022/11/11 04:57:33;;;;;;;;;;;;;;;;;;6259287;22;20446;-91
2022/11/11 04:59:59;;;;;;;;;;;;;;;;;;6264981;22;20041;-90
2022/11/11 05:05:10;;;;;;;;;;;;;;;;;;6263469;22;20243;-90
2022/11/11 05:10:20;;;;;;;;;;;;;;;;;;6262230;22;19922;-90
2022/11/11 05:12:46;;;;;;;;;;;;;;;;;;6269454;22;20268;-90
2022/11/11 05:25:24;;;;;;;;;;;;;;;;;;6260950;22;20370;-90
2022/11/11 05:26:12;;;;;;;;;;;;;;;;;;6262509;22;20334;-91
2022/11/11 05:28:41;;;;;;;;;;;;;;;;;;6240056;22;19941;-91
2022/11/11 05:31:07;;;;;;;;;;;;;;;;;;6262781;22;19919;-91
2022/11/11 05:33:33;;;;;;;;;;;;;;;;;;6235944;22;20172;-90
2022/11/11 05:35:59;;;;;;;;;;;;;;;;;;6265842;22;20069;-91
2022/11/11 05:38:25;;;;;;;;;;;;;;;;;;6259729;22;20344;-91
2022/11/11 05:40:51;;;;;;;;;;;;;;;;;;6263378;22;19985;-91
2022/11/11 05:43:17;;;;;;;;;;;;;;;;;;6260344;22;19926;-91
2022/11/11 05:45:43;;;;;;;;;;;;;;;;;;6267454;22;19918;-91
2022/11/11 05:48:09;;;;;;;;;;;;;;;;;;6268417;22;20413;-91
2022/11/11 05:50:37;;;;;;;;;;;;;;;;;;6261281;22;19930;-91
2022/11/11 05:53:03;;;;;;;;;;;;;;;;;;6263539;22;19968;-90
2022/11/11 05:55:29;;;;;;;;;;;;;;;;;;6261159;22;19923;-90
2022/11/11 05:57:55;;;;;;;;;;;;;;;;;;6264850;22;19919;-91
2022/11/11 06:00:21;;;;;;;;;;;;;;;;;;6257916;22;19930;-91
2022/11/11 06:02:46;;;;;;;;;;;;;;;;;;6263259;22;19923;-90
2022/11/11 06:05:19;;;;;;;;;;;;;;;;;;6261437;22;20018;-90
2022/11/11 06:07:45;;;;;;;;;;;;;;;;;;6264496;22;19925;-90
2022/11/11 06:10:29;;;;;;;;;;;;;;;;;;6265451;22;19929;-91
2022/11/11 06:13:01;;;;;;;;;;;;;;;;;;6264786;22;19918;-90
2022/11/11 06:15:27;;;;;;;;;;;;;;;;;;6258298;22;20022;-92
2022/11/11 06:17:53;;;;;;;;;;;;;;;;;;6259895;22;19958;-91
2022/11/11 06:20:19;;;;;;;;;;;;;;;;;;6260503;22;19927;-90
2022/11/11 06:22:57;;;;;;;;;;;;;;;;;;6265684;22;20323;-90
2022/11/11 06:28:08;;;;;;;;;;;;;;;;;;6265890;22;20351;-90
2022/11/11 06:30:34;;;;;;;;;;;;;;;;;;6259838;22;20370;-90
2022/11/11 06:33:00;;;;;;;;;;;;;;;;;;6260695;22;19976;-90
2022/11/11 06:35:26;;;;;;;;;;;;;;;;;;6258182;22;19919;-91
2022/11/11 06:37:52;;;;;;;;;;;;;;;;;;6260627;22;19926;-91
2022/11/11 06:40:18;;;;;;;;;;;;;;;;;;6260070;22;19972;-90
2022/11/11 06:42:44;;;;;;;;;;;;;;;;;;6258187;22;19919;-91
2022/11/11 06:45:10;;;;;;;;;;;;;;;;;;6260250;22;19919;-90
2022/11/11 06:47:36;;;;;;;;;;;;;;;;;;6259102;22;19953;-90
2022/11/11 06:50:01;;;;;;;;;;;;;;;;;;6260713;22;19930;-90
2022/11/11 06:52:27;;;;;;;;;;;;;;;;;;6256353;22;19919;-90
2022/11/11 06:54:53;;;;;;;;;;;;;;;;;;6259558;22;19919;-90
2022/11/11 06:57:19;;;;;;;;;;;;;;;;;;6254707;22;19947;-90
2022/11/11 06:59:45;;;;;;;;;;;;;;;;;;6262489;22;19923;-91
2022/11/11 07:02:11;;;;;;;;;;;;;;;;;;6260900;22;20016;-90
2022/11/11 07:04:37;;;;;;;;;;;;;;;;;;6263722;22;19925;-92
2022/11/11 07:07:03;;;;;;;;;;;;;;;;;;6244475;22;19919;-91
2022/11/11 07:09:29;;;;;;;;;;;;;;;;;;6265637;22;19919;-92
2022/11/11 07:11:55;;;;;;;;;;;;;;;;;;6233556;22;19919;-91
2022/11/11 07:14:21;;;;;;;;;;;;;;;;;;6234058;22;20339;-91
2022/11/11 07:16:47;;;;;;;;;;;;;;;;;;6237600;22;20284;-91
2022/11/11 07:19:16;;;;;;;;;;;;;;;;;;6239552;22;19919;-91
2022/11/11 07:21:42;;;;;;;;;;;;;;;;;;6236122;22;19972;-91
2022/11/11 07:24:08;;;;;;;;;;;;;;;;;;6234354;22;19923;-91
2022/11/11 07:26:34;;;;;;;;;;;;;;;;;;6237340;22;20081;-92
2022/11/11 07:29:00;;;;;;;;;;;;;;;;;;6240921;22;20446;-91
2022/11/11 07:31:31;;;;;;;;;;;;;;;;;;6289555;22;19923;-91
2022/11/11 07:34:09;;;;;;;;;;;;;;;;;;6264475;22;20476;-91
2022/11/11 07:36:58;;;;;;;;;;;;;;;;;;6289063;22;19968;-91
2022/11/11 07:39:35;;;;;;;;;;;;;;;;;;6264217;22;19919;-91
2022/11/11 07:42:01;;;;;;;;;;;;;;;;;;6266308;22;19985;-91
2022/11/11 07:44:27;;;;;;;;;;;;;;;;;;6262730;22;19919;-91
2022/11/11 07:46:53;;;;;;;;;;;;;;;;;;6267910;22;20229;-91
2022/11/11 07:49:19;;;;;;;;;;;;;;;;;;6264917;22;19954;-91
2022/11/11 07:51:45;;;;;;;;;;;;;;;;;;6266228;22;19998;-91
2022/11/11 07:54:12;;;;;;;;;;;;;;;;;;6257646;22;20298;-90
2022/11/11 07:56:38;;;;;;;;;;;;;;;;;;6259134;22;19921;-92
2022/11/11 07:59:04;;;;;;;;;;;;;;;;;;6264957;22;19969;-91
2022/11/11 08:01:30;;;;;;;;;;;;;;;;;;6261233;22;19992;-91
2022/11/11 08:03:56;;;;;;;;;;;;;;;;;;6264930;22;19919;-91
2022/11/11 08:06:22;;;;;;;;;;;;;;;;;;6264834;22;20472;-91
2022/11/11 08:08:47;;;;;;;;;;;;;;;;;;6266234;22;19915;-91
2022/11/11 08:11:13;;;;;;;;;;;;;;;;;;6266955;22;19915;-91
2022/11/11 08:13:39;;;;;;;;;;;;;;;;;;6265787;22;19919;-91
2022/11/11 08:16:06;;;;;;;;;;;;;;;;;;6267846;22;19926;-91
2022/11/11 08:18:32;;;;;;;;;;;;;;;;;;6262935;22;19923;-91
2022/11/11 08:20:58;;;;;;;;;;;;;;;;;;6266451;22;19925;-91
2022/11/11 08:23:31;;;;;;;;;;;;;;;;;;6266202;22;19923;-92
2022/11/11 08:25:58;;;;;;;;;;;;;;;;;;6267202;22;19918;-92
2022/11/11 08:28:24;;;;;;;;;;;;;;;;;;6240363;22;20293;-92
2022/11/11 08:30:49;;;;;;;;;;;;;;;;;;6264281;22;19919;-90
2022/11/11 08:33:15;;;;;;;;;;;;;;;;;;6266446;22;20248;-90
2022/11/11 08:35:41;;;;;;;;;;;;;;;;;;6267483;22;19919;-90
2022/11/11 08:38:10;;;;;;;;;;;;;;;;;;6263515;22;20644;-91
2022/11/11 08:40:36;;;;;;;;;;;;;;;;;;6262581;22;19962;-90
2022/11/11 08:43:02;;;;;;;;;;;;;;;;;;6267480;22;19941;-91
2022/11/11 08:45:28;;;;;;;;;;;;;;;;;;6262759;22;20031;-91
2022/11/11 08:47:54;;;;;;;;;;;;;;;;;;6265889;22;19926;-91
2022/11/11 08:50:20;;;;;;;;;;;;;;;;;;6265148;22;20392;-91
2022/11/11 08:52:46;;;;;;;;;;;;;;;;;;6293054;22;20049;-92
2022/11/11 08:55:12;;;;;;;;;;;;;;;;;;6269715;22;19921;-91
2022/11/11 08:57:38;;;;;;;;;;;;;;;;;;6265112;22;19914;-91
2022/11/11 09:00:04;;;;;;;;;;;;;;;;;;6259916;22;19962;-91
2022/11/11 09:02:30;;;;;;;;;;;;;;;;;;6260466;22;20251;-91
2022/11/11 09:04:56;;;;;;;;;;;;;;;;;;6262145;22;19977;-92
2022/11/11 09:07:22;;;;;;;;;;;;;;;;;;6263721;22;19915;-91
2022/11/11 09:09:48;;;;;;;;;;;;;;;;;;6265385;22;19918;-91
2022/11/11 09:12:13;;;;;;;;;;;;;;;;;;6264393;22;19918;-91
2022/11/11 09:14:39;;;;;;;;;;;;;;;;;;6264236;22;20090;-91
2022/11/11 09:17:05;;;;;;;;;;;;;;;;;;6264534;22;19941;-91
2022/11/11 09:19:31;;;;;;;;;;;;;;;;;;6262704;22;19919;-91
2022/11/11 09:21:57;;;;;;;;;;;;;;;;;;6265411;22;19919;-91
2022/11/11 09:24:23;;;;;;;;;;;;;;;;;;6258748;22;19919;-92
2022/11/11 09:26:49;;;;;;;;;;;;;;;;;;6263027;22;20153;-92
2022/11/11 09:29:15;;;;;;;;;;;;;;;;;;6264313;22;19926;-91
2022/11/11 09:31:41;;;;;;;;;;;;;;;;;;6265721;22;20252;-91
2022/11/11 09:34:07;;;;;;;;;;;;;;;;;;6265154;22;19923;-91
2022/11/11 09:36:33;;;;;;;;;;;;;;;;;;6262254;22;20920;-92
2022/11/11 09:38:59;;;;;;;;;;;;;;;;;;6235520;22;19930;-91
2022/11/11 09:41:25;;;;;;;;;;;;;;;;;;6264495;22;19919;-92
2022/11/11 09:43:51;;;;;;;;;;;;;;;;;;6266082;22;19919;-91
2022/11/11 09:46:17;;;;;;;;;;;;;;;;;;6239597;22;20251;-92
2022/11/11 09:48:43;;;;;;;;;;;;;;;;;;6241223;22;19915;-91
2022/11/11 09:51:09;;;;;;;;;;;;;;;;;;6264187;22;19958;-91
2022/11/11 09:53:36;;;;;;;;;;;;;;;;;;6264093;22;19967;-91
2022/11/11 09:56:02;;;;;;;;;;;;;;;;;;6243606;22;19921;-91
2022/11/11 09:58:28;;;;;;;;;;;;;;;;;;6262510;22;19926;-91
2022/11/11 10:00:54;;;;;;;;;;;;;;;;;;6262945;22;19919;-91
2022/11/11 10:03:20;;;;;;;;;;;;;;;;;;6261161;22;19919;-91
2022/11/11 10:05:46;;;;;;;;;;;;;;;;;;6292720;22;19922;-91
2022/11/11 10:08:12;;;;;;;;;;;;;;;;;;6265741;22;20024;-92
2022/11/11 10:10:38;;;;;;;;;;;;;;;;;;6266087;22;19926;-91
2022/11/11 10:13:04;;;;;;;;;;;;;;;;;;6265860;22;19918;-91
2022/11/11 10:15:30;;;;;;;;;;;;;;;;;;6267107;22;20394;-92
2022/11/11 10:17:56;;;;;;;;;;;;;;;;;;6266104;22;19918;-91
2022/11/11 10:20:22;;;;;;;;;;;;;;;;;;6264987;22;19919;-91
2022/11/11 10:22:48;;;;;;;;;;;;;;;;;;6266302;22;20398;-92
2022/11/11 10:25:17;;;;;;;;;;;;;;;;;;6266028;22;19976;-92
2022/11/11 10:27:43;;;;;;;;;;;;;;;;;;6267037;22;19922;-91
2022/11/11 10:30:09;;;;;;;;;;;;;;;;;;6270324;22;19954;-92
2022/11/11 10:32:35;;;;;;;;;;;;;;;;;;6268201;22;20336;-91
2022/11/11 10:35:02;;;;;;;;;;;;;;;;;;6244177;22;19930;-91
2022/11/11 10:37:28;;;;;;;;;;;;;;;;;;6265931;22;19986;-91
2022/11/11 10:39:54;;;;;;;;;;;;;;;;;;6267126;22;19946;-92
2022/11/11 10:42:19;;;;;;;;;;;;;;;;;;6265815;22;20373;-91
2022/11/11 10:44:46;;;;;;;;;;;;;;;;;;6264862;22;19926;-92
2022/11/11 10:47:12;;;;;;;;;;;;;;;;;;6268927;22;19919;-92
2022/11/11 10:49:38;;;;;;;;;;;;;;;;;;6262544;22;20018;-91
2022/11/11 10:52:04;;;;;;;;;;;;;;;;;;6256334;22;19919;-91
2022/11/11 10:54:30;;;;;;;;;;;;;;;;;;6233447;22;19921;-91
2022/11/11 10:56:56;;;;;;;;;;;;;;;;;;6232458;22;20009;-91
2022/11/11 10:59:22;;;;;;;;;;;;;;;;;;6259171;22;19970;-91
2022/11/11 11:01:47;;;;;;;;;;;;;;;;;;6234472;22;19969;-91
2022/11/11 11:04:13;;;;;;;;;;;;;;;;;;6234563;22;19958;-92
2022/11/11 11:06:40;;;;;;;;;;;;;;;;;;6235107;22;19923;-92
2022/11/11 11:09:06;;;;;;;;;;;;;;;;;;6235983;22;19969;-92
2022/11/11 11:11:32;;;;;;;;;;;;;;;;;;6256756;22;19919;-91
2022/11/11 11:13:57;;;;;;;;;;;;;;;;;;6262086;22;20355;-92
2022/11/11 11:16:24;;;;;;;;;;;;;;;;;;6231407;22;19926;-91
2022/11/11 11:18:49;;;;;;;;;;;;;;;;;;6232244;22;19930;-92
2022/11/11 11:21:15;;;;;;;;;;;;;;;;;;6232408;22;19919;-91
2022/11/11 11:23:41;;;;;;;;;;;;;;;;;;6258788;22;19919;-90
2022/11/11 11:26:07;;;;;;;;;;;;;;;;;;6234386;22;19919;-91
2022/11/11 11:28:34;;;;;;;;;;;;;;;;;;6257872;22;20434;-90
2022/11/11 11:31:00;;;;;;;;;;;;;;;;;;6261085;22;19969;-90
2022/11/11 11:33:28;;;;;;;;;;;;;;;;;;6259084;22;19919;-91
2022/11/11 11:35:54;;;;;;;;;;;;;;;;;;6235162;22;20310;-90
2022/11/11 11:38:20;;;;;;;;;;;;;;;;;;6260162;22;19919;-91
2022/11/11 11:40:46;;;;;;;;;;;;;;;;;;6237915;22;20301;-91
2022/11/11 11:43:12;;;;;;;;;;;;;;;;;;6263855;22;19927;-91
2022/11/11 11:45:39;;;;;;;;;;;;;;;;;;6232480;22;20248;-90
2022/11/11 11:48:04;;;;;;;;;;;;;;;;;;6265557;22;19926;-91
2022/11/11 11:50:31;;;;;;;;;;;;;;;;;;6236197;22;20336;-90
2022/11/11 11:52:56;;;;;;;;;;;;;;;;;;6261986;22;19927;-90
2022/11/11 11:55:22;;;;;;;;;;;;;;;;;;6233906;22;20396;-90
2022/11/11 11:57:49;;;;;;;;;;;;;;;;;;6239113;22;19934;-90
2022/11/11 12:00:15;;;;;;;;;;;;;;;;;;6234420;22;19977;-91
2022/11/11 12:02:42;;;;;;;;;;;;;;;;;;6261718;22;19925;-91
2022/11/11 12:05:08;;;;;;;;;;;;;;;;;;6231312;22;19954;-90
2022/11/11 12:07:34;;;;;;;;;;;;;;;;;;6231137;22;20669;-90
2022/11/11 12:10:00;;;;;;;;;;;;;;;;;;6232656;22;20343;-90
2022/11/11 12:12:25;;;;;;;;;;;;;;;;;;6233379;22;20339;-90
2022/11/11 12:14:51;;;;;;;;;;;;;;;;;;6238807;22;19915;-90
2022/11/11 12:17:17;;;;;;;;;;;;;;;;;;6235273;22;19942;-90
2022/11/11 12:19:43;;;;;;;;;;;;;;;;;;6261195;22;19929;-91
2022/11/11 12:22:09;;;;;;;;;;;;;;;;;;6237241;22;19919;-90
2022/11/11 12:24:35;;;;;;;;;;;;;;;;;;6234836;22;19953;-90
2022/11/11 12:27:01;;;;;;;;;;;;;;;;;;6264203;22;20257;-90
2022/11/11 12:29:27;;;;;;;;;;;;;;;;;;6261479;22;19964;-90
2022/11/11 12:31:53;;;;;;;;;;;;;;;;;;6234836;22;20268;-92
2022/11/11 12:34:19;;;;;;;;;;;;;;;;;;6231963;22;19915;-89
2022/11/11 12:36:45;;;;;;;;;;;;;;;;;;6258601;22;19930;-90
2022/11/11 12:39:11;;;;;;;;;;;;;;;;;;6260080;22;19924;-90
2022/11/11 12:41:37;;;;;;;;;;;;;;;;;;6231031;22;20248;-90
2022/11/11 12:44:04;;;;;;;;;;;;;;;;;;6233681;22;19919;-90
2022/11/11 12:46:30;;;;;;;;;;;;;;;;;;6256429;22;19926;-90
2022/11/11 12:48:56;;;;;;;;;;;;;;;;;;6234595;22;19919;-91
2022/11/11 12:51:22;;;;;;;;;;;;;;;;;;6258442;22;19931;-90
2022/11/11 12:53:48;;;;;;;;;;;;;;;;;;6260645;22;19950;-90
2022/11/11 12:56:14;;;;;;;;;;;;;;;;;;6262651;22;20332;-91
2022/11/11 12:58:40;;;;;;;;;;;;;;;;;;6237793;22;19922;-90
2022/11/11 13:01:06;;;;;;;;;;;;;;;;;;6262144;22;19923;-91
2022/11/11 13:03:32;;;;;;;;;;;;;;;;;;6233394;22;19916;-90
2022/11/11 13:05:58;;;;;;;;;;;;;;;;;;6237588;22;19915;-90
2022/11/11 13:08:24;;;;;;;;;;;;;;;;;;6261801;22;20276;-89
2022/11/11 13:10:50;;;;;;;;;;;;;;;;;;6263068;22;19919;-90
2022/11/11 13:13:15;;;;;;;;;;;;;;;;;;6264458;22;19919;-90
2022/11/11 13:15:41;;;;;;;;;;;;;;;;;;6266372;22;19975;-90
2022/11/11 13:18:07;;;;;;;;;;;;;;;;;;6234789;22;19930;-90
2022/11/11 13:20:33;;;;;;;;;;;;;;;;;;6251135;22;20337;-90
2022/11/11 13:22:59;;;;;;;;;;;;;;;;;;6236075;22;19919;-90
2022/11/11 13:25:26;;;;;;;;;;;;;;;;;;6231859;22;19989;-90
2022/11/11 13:27:52;;;;;;;;;;;;;;;;;;6233900;22;19919;-90
2022/11/11 13:30:18;;;;;;;;;;;;;;;;;;6228428;22;19919;-90
2022/11/11 13:32:44;;;;;;;;;;;;;;;;;;6222901;22;19953;-91
2022/11/11 13:35:10;;;;;;;;;;;;;;;;;;6240759;22;19919;-90
2022/11/11 13:37:36;;;;;;;;;;;;;;;;;;6242531;22;19963;-90
2022/11/11 13:40:02;;;;;;;;;;;;;;;;;;6254077;22;19929;-90
2022/11/11 13:42:28;;;;;;;;;;;;;;;;;;6226865;22;20271;-90
2022/11/11 13:44:54;;;;;;;;;;;;;;;;;;6226999;22;19941;-90
2022/11/11 13:47:20;;;;;;;;;;;;;;;;;;6230030;22;19923;-90
2022/11/11 13:49:46;;;;;;;;;;;;;;;;;;6231913;22;20000;-89
2022/11/11 13:52:12;;;;;;;;;;;;;;;;;;6255495;22;19923;-89
2022/11/11 13:54:41;;;;;;;;;;;;;;;;;;6228654;22;19920;-90
2022/11/11 13:57:09;;;;;;;;;;;;;;;;;;6203158;22;20336;-89
2022/11/11 13:59:35;;;;;;;;;;;;;;;;;;6229098;22;19923;-89
2022/11/11 14:02:01;;;;;;;;;;;;;;;;;;6204522;22;19923;-90
2022/11/11 14:04:28;;;;;;;;;;;;;;;;;;6229800;22;20077;-90
2022/11/11 14:06:56;;;;;;;;;;;;;;;;;;6230661;22;19919;-89
2022/11/11 14:09:22;;;;;;;;;;;;;;;;;;6226940;22;20223;-89
2022/11/11 14:11:48;;;;;;;;;;;;;;;;;;6231821;22;19994;-90
2022/11/11 14:14:14;;;;;;;;;;;;;;;;;;6205610;22;19965;-89
2022/11/11 14:19:52;;;;;;;;;;;;;;;;;;6184982;22;20305;-91
2022/11/11 14:22:18;;;;;;;;;;;;;;;;;;6205238;22;19918;-90
2022/11/11 14:24:47;;;;;;;;;;;;;;;;;;6205187;22;20437;-91
2022/11/11 14:27:16;;;;;;;;;;;;;;;;;;6232277;22;19919;-89
2022/11/11 14:29:42;;;;;;;;;;;;;;;;;;6208149;22;19950;-90
2022/11/11 14:32:08;;;;;;;;;;;;;;;;;;6206887;22;19926;-89
2022/11/11 14:34:34;;;;;;;;;;;;;;;;;;6208033;22;20323;-89
2022/11/11 14:37:00;;;;;;;;;;;;;;;;;;6208419;22;20324;-89
2022/11/11 14:39:26;;;;;;;;;;;;;;;;;;6204535;22;19934;-90
2022/11/11 14:41:52;;;;;;;;;;;;;;;;;;6210532;22;19915;-89
2022/11/11 14:44:18;;;;;;;;;;;;;;;;;;6232569;22;19919;-90
2022/11/11 14:46:44;;;;;;;;;;;;;;;;;;6208206;22;19919;-90
2022/11/11 14:49:10;;;;;;;;;;;;;;;;;;6208718;22;19925;-89
2022/11/11 14:51:36;;;;;;;;;;;;;;;;;;6233408;22;20336;-90
2022/11/11 14:54:02;;;;;;;;;;;;;;;;;;6212321;22;19968;-90
2022/11/11 14:56:28;;;;;;;;;;;;;;;;;;6208237;22;20332;-90
2022/11/11 14:58:53;;;;;;;;;;;;;;;;;;6207835;22;19919;-90
2022/11/11 15:01:19;;;;;;;;;;;;;;;;;;6227378;22;20492;-91
2022/11/11 15:03:48;;;;;;;;;;;;;;;;;;6209405;22;19986;-89
2022/11/11 15:06:17;;;;;;;;;;;;;;;;;;6208760;22;19958;-90
2022/11/11 15:08:43;;;;;;;;;;;;;;;;;;6265273;22;19990;-90
2022/11/11 15:11:09;;;;;;;;;;;;;;;;;;6236622;22;20311;-90
2022/11/11 15:13:35;;;;;;;;;;;;;;;;;;6208156;22;19919;-91
2022/11/11 15:16:01;;;;;;;;;;;;;;;;;;6209784;22;19926;-89
2022/11/11 15:18:27;;;;;;;;;;;;;;;;;;6227204;22;20360;-90
2022/11/11 15:20:53;;;;;;;;;;;;;;;;;;6231376;22;20033;-90
2022/11/11 15:23:19;;;;;;;;;;;;;;;;;;6205591;22;20350;-91
2022/11/11 15:25:45;;;;;;;;;;;;;;;;;;6234022;22;20082;-90
2022/11/11 15:28:11;;;;;;;;;;;;;;;;;;6208207;22;19919;-90
2022/11/11 15:30:37;;;;;;;;;;;;;;;;;;6206395;22;20340;-90
2022/11/11 15:33:03;;;;;;;;;;;;;;;;;;6206581;22;19915;-90
2022/11/11 15:35:29;;;;;;;;;;;;;;;;;;6207050;22;19984;-90
2022/11/11 15:37:58;;;;;;;;;;;;;;;;;;6213469;22;19938;-91
2022/11/11 15:40:24;;;;;;;;;;;;;;;;;;6204368;22;20335;-90
2022/11/11 15:42:50;;;;;;;;;;;;;;;;;;6209894;22;19976;-90
2022/11/11 15:45:16;;;;;;;;;;;;;;;;;;6230712;22;19923;-90
2022/11/11 15:47:42;;;;;;;;;;;;;;;;;;6230514;22;19926;-91
2022/11/11 15:50:08;;;;;;;;;;;;;;;;;;6201367;22;20178;-90
2022/11/11 15:52:34;;;;;;;;;;;;;;;;;;6201095;22;20833;-90
2022/11/11 15:55:00;;;;;;;;;;;;;;;;;;6228496;22;20450;-90
2022/11/11 15:57:26;;;;;;;;;;;;;;;;;;6227014;22;19923;-90
2022/11/11 15:59:52;;;;;;;;;;;;;;;;;;6209215;22;20370;-91
2022/11/11 16:02:18;;;;;;;;;;;;;;;;;;6227492;22;19915;-90
2022/11/11 16:04:44;;;;;;;;;;;;;;;;;;6233703;22;19919;-90
2022/11/11 16:07:10;;;;;;;;;;;;;;;;;;6206959;22;20330;-90
2022/11/11 16:09:39;;;;;;;;;;;;;;;;;;6203265;22;20466;-90
2022/11/11 16:12:05;;;;;;;;;;;;;;;;;;6227042;22;19919;-90
2022/11/11 16:14:31;;;;;;;;;;;;;;;;;;6201760;22;19923;-89
2022/11/11 16:16:57;;;;;;;;;;;;;;;;;;6232796;22;20244;-89
2022/11/11 16:19:23;;;;;;;;;;;;;;;;;;6230110;22;19919;-90
2022/11/11 16:21:49;;;;;;;;;;;;;;;;;;6202177;22;19985;-90
2022/11/11 16:24:15;;;;;;;;;;;;;;;;;;6227022;22;19919;-90
2022/11/11 16:26:41;;;;;;;;;;;;;;;;;;6229717;22;19958;-90
2022/11/11 16:29:07;;;;;;;;;;;;;;;;;;6227989;22;20365;-89
2022/11/11 16:31:33;;;;;;;;;;;;;;;;;;6201023;22;19949;-90
2022/11/11 16:33:59;;;;;;;;;;;;;;;;;;6207095;22;19919;-89
2022/11/11 16:36:25;;;;;;;;;;;;;;;;;;6204204;22;19919;-89
2022/11/11 16:38:51;;;;;;;;;;;;;;;;;;6230395;22;20057;-89
2022/11/11 16:41:17;;;;;;;;;;;;;;;;;;6201183;22;19991;-89
2022/11/11 16:43:43;;;;;;;;;;;;;;;;;;6231161;22;19919;-89
2022/11/11 16:46:09;;;;;;;;;;;;;;;;;;6227586;22;20324;-89
2022/11/11 16:48:41;;;;;;;;;;;;;;;;;;6202703;22;20639;-89
2022/11/11 16:51:07;;;;;;;;;;;;;;;;;;6204620;22;19930;-88
2022/11/11 16:53:33;;;;;;;;;;;;;;;;;;6228861;22;19919;-89
2022/11/11 16:55:59;;;;;;;;;;;;;;;;;;6232013;22;19919;-88
2022/11/11 16:58:25;;;;;;;;;;;;;;;;;;6227609;22;19922;-90
2022/11/11 17:00:51;;;;;;;;;;;;;;;;;;6201467;22;19919;-89
2022/11/11 17:03:19;;;;;;;;;;;;;;;;;;6227338;22;19915;-89
2022/11/11 17:05:45;;;;;;;;;;;;;;;;;;6231144;22;20323;-90
2022/11/11 17:08:11;;;;;;;;;;;;;;;;;;6235130;22;19926;-90
2022/11/11 17:10:36;;;;;;;;;;;;;;;;;;6206364;22;20244;-89
2022/11/11 17:13:03;;;;;;;;;;;;;;;;;;6207892;22;19925;-89
2022/11/11 17:15:29;;;;;;;;;;;;;;;;;;6202125;22;19919;-90
2022/11/11 17:17:55;;;;;;;;;;;;;;;;;;6203852;22;19919;-89
2022/11/11 17:20:21;;;;;;;;;;;;;;;;;;6200966;22;19930;-90
2022/11/11 17:22:47;;;;;;;;;;;;;;;;;;6201522;22;20399;-90
2022/11/11 17:25:16;;;;;;;;;;;;;;;;;;6229871;22;19926;-91
2022/11/11 17:27:43;;;;;;;;;;;;;;;;;;6233600;22;19926;-90
2022/11/11 17:30:09;;;;;;;;;;;;;;;;;;6211966;22;19926;-89
2022/11/11 17:32:35;;;;;;;;;;;;;;;;;;6236142;22;19920;-90
2022/11/11 17:35:01;;;;;;;;;;;;;;;;;;6220430;22;19961;-90
2022/11/11 17:37:27;;;;;;;;;;;;;;;;;;6229439;22;19919;-90
2022/11/11 17:39:53;;;;;;;;;;;;;;;;;;6234742;22;20005;-90
2022/11/11 17:42:19;;;;;;;;;;;;;;;;;;6202907;22;19926;-90
2022/11/11 17:44:45;;;;;;;;;;;;;;;;;;6207614;22;19923;-90
2022/11/11 17:47:11;;;;;;;;;;;;;;;;;;6232280;22;20390;-90
2022/11/11 17:49:37;;;;;;;;;;;;;;;;;;6223570;22;20384;-89
2022/11/11 17:52:03;;;;;;;;;;;;;;;;;;6206311;22;20244;-89
2022/11/11 17:54:29;;;;;;;;;;;;;;;;;;6228053;22;19965;-89
2022/11/11 17:56:55;;;;;;;;;;;;;;;;;;6208285;22;19991;-89
2022/11/11 17:59:21;;;;;;;;;;;;;;;;;;6228245;22;19923;-89
2022/11/11 18:01:47;;;;;;;;;;;;;;;;;;6208891;22;19939;-89
2022/11/11 18:04:16;;;;;;;;;;;;;;;;;;6209388;22;20498;-89